Date,TemperatureHighF,TemperatureAvgF,TemperatureLowF,DewpointHighF,DewpointAvgF,DewpointLowF,HumidityHigh,HumidityAvg,HumidityLow,PressureMaxIn,PressureMinIn,WindSpeedMaxMPH,WindSpeedAvgMPH,GustSpeedMaxMPH,PrecipitationSumIn
2013-1-1,23.0,14.5,7.0,9.4,4.6,-0.8,78,65,45,30.29,30.10,11,1,11,0.00
2013-1-2,35.8,23.7,10.4,28.2,17.6,5.7,83,77,67,30.16,30.00,10,0,10,0.00
2013-1-3,31.0,24.2,18.6,25.9,17.4,11.5,83,75,60,30.36,30.16,17,2,17,0.00
2013-1-4,39.1,24.5,16.1,21.0,15.4,11.3,84,69,42,30.28,30.08,13,1,13,0.00
2013-1-5,35.5,24.7,17.3,27.1,17.7,13.3,86,75,58,30.14,29.93,19,2,19,0.00
2013-1-6,39.3,26.2,14.9,23.2,17.5,10.3,82,70,48,30.29,30.07,17,1,17,0.00
2013-1-7,42.9,32.9,27.2,27.1,23.8,20.4,86,70,51,30.07,29.87,12,2,17,0.00
2013-1-8,44.6,33.9,23.5,30.4,26.4,19.9,89,75,54,30.04,29.76,14,2,16,0.00
2013-1-9,46.1,35.4,26.1,32.0,28.0,22.4,88,75,53,30.36,30.04,13,0,13,0.00
2013-1-10,39.8,36.1,31.0,36.7,30.6,23.5,98,81,54,30.26,29.61,15,1,15,0.07
2013-1-11,54.5,42.7,28.5,48.4,39.5,18.0,100,89,68,29.67,29.28,19,3,19,0.00
2013-1-12,28.2,19.8,11.6,16.6,6.6,1.1,66,56,45,30.11,29.67,21,4,21,0.00
2013-1-13,21.8,14.1,7.9,4.5,1.4,-3.3,69,57,34,30.32,30.09,14,2,14,0.00
2013-1-14,30.4,18.9,8.4,11.4,6.4,1.7,78,59,35,30.44,30.31,11,0,11,0.00
2013-1-15,37.0,25.0,15.2,15.8,11.3,7.2,74,57,32,30.31,29.99,14,2,14,0.00
2013-1-16,51.3,36.8,23.2,31.4,24.5,15.3,77,62,44,30.14,29.85,17,2,17,0.00
2013-1-17,35.5,29.5,23.8,29.2,25.0,19.7,91,83,69,30.40,30.14,13,1,13,0.00
2013-1-18,54.5,39.1,26.7,30.3,27.8,24.2,92,67,37,30.23,29.80,21,3,21,0.00
2013-1-19,53.3,38.4,22.4,29.4,24.6,8.8,86,61,34,30.26,29.77,22,4,22,0.00
2013-1-20,22.4,17.8,14.6,9.7,6.3,1.3,71,61,41,30.39,30.23,16,2,16,0.00
2013-1-21,15.9,10.9,5.4,7.6,-5.7,-11.7,70,47,35,30.45,30.34,18,2,18,0.00
2013-1-22,21.0,14.0,10.0,9.0,5.0,-3.8,79,67,48,30.38,30.23,5,1,6,0.01
2013-1-23,30.0,19.2,10.4,16.1,8.4,-4.2,74,63,50,30.48,30.13,18,4,18,0.00
2013-1-24,19.9,11.1,2.4,3.9,-3.4,-9.6,61,51,43,30.54,30.16,14,2,14,0.00
2013-1-25,47.9,29.7,15.7,23.9,15.0,3.4,71,55,36,30.17,30.06,12,1,12,0.00
2013-1-26,46.4,30.1,16.4,24.1,17.4,7.4,75,60,38,30.21,29.94,13,2,13,0.00
2013-1-27,42.1,38.5,34.0,41.6,35.9,21.7,99,91,53,29.94,29.59,15,2,15,0.13
2013-1-28,46.5,39.5,33.4,46.5,39.3,33.0,100,100,99,29.80,29.45,7,1,7,0.00
2013-1-29,41.2,34.4,30.9,41.2,32.1,28.4,100,91,81,29.60,29.44,22,5,22,0.04
2013-1-30,30.7,22.7,15.7,28.7,17.2,7.4,95,80,62,29.89,29.54,25,5,25,0.14
2013-1-31,15.6,7.8,0.9,7.3,-3.9,-10.2,72,58,45,30.43,29.89,22,3,22,0.00
2013-2-1,26.6,13.7,-2.0,17.0,3.6,-9.9,71,63,54,30.44,30.02,21,3,21,0.00
2013-2-2,38.5,29.6,25.0,28.8,21.7,16.0,88,72,60,30.15,29.99,14,1,14,0.00
2013-2-3,42.8,33.5,22.7,27.8,21.7,13.3,77,62,47,30.16,29.70,18,3,18,0.00
2013-2-4,34.0,27.6,23.2,28.0,21.4,18.5,87,77,65,29.96,29.68,19,2,20,0.00
2013-2-5,50.1,36.6,26.1,31.2,25.6,22.0,89,67,35,29.99,29.77,17,1,17,0.00
2013-2-6,53.2,40.2,29.4,36.5,31.0,24.9,87,71,49,29.99,29.74,19,1,19,0.00
2013-2-7,41.1,34.4,29.8,34.8,28.5,21.9,87,79,72,30.17,29.77,20,4,20,0.00
2013-2-8,32.9,28.6,25.8,26.3,23.8,21.9,91,82,71,30.29,30.09,11,2,11,0.00
2013-2-9,49.2,37.2,28.4,35.3,30.9,26.1,91,79,56,30.11,29.59,22,4,22,0.00
2013-2-10,46.1,37.5,30.7,43.8,32.3,20.3,99,82,61,29.72,29.17,29,6,29,0.02
2013-2-11,37.2,30.9,25.1,23.1,20.7,19.2,81,66,52,30.09,29.72,22,3,22,0.00
2013-2-12,48.8,33.7,20.6,24.3,19.9,16.8,86,61,31,30.09,29.82,16,1,16,0.00
2013-2-13,55.1,38.9,24.7,29.3,24.0,18.9,82,58,28,29.83,29.64,15,1,15,0.00
2013-2-14,45.1,37.6,24.5,31.0,25.2,9.7,88,62,36,30.21,29.68,25,3,25,0.00
2013-2-15,33.2,24.3,16.4,23.0,14.1,9.2,90,67,38,30.32,30.20,13,1,13,0.04
2013-2-16,32.2,24.2,12.3,23.7,17.2,8.7,85,75,59,30.28,29.94,14,1,14,0.00
2013-2-17,54.5,38.1,23.5,31.6,25.4,18.5,82,62,38,29.95,29.46,23,2,23,0.00
2013-2-18,45.2,32.7,21.6,31.5,23.2,11.8,91,68,52,30.00,29.43,27,5,27,0.01
2013-2-19,26.1,17.1,9.5,13.6,0.1,-6.7,69,49,24,30.35,30.00,23,4,23,0.00
2013-2-20,25.4,15.8,4.7,5.3,0.3,-4.7,66,51,35,30.37,30.18,12,2,12,0.00
2013-2-21,24.4,21.8,21.0,21.0,13.7,4.5,93,73,46,30.20,29.77,22,5,22,0.32
2013-2-22,24.7,20.0,12.1,19.6,15.4,7.5,91,82,71,29.99,29.77,15,2,15,0.01
2013-2-23,35.8,20.8,5.0,31.0,15.2,-0.1,84,79,70,29.98,29.79,16,1,16,0.00
2013-2-24,43.3,30.7,18.8,27.4,21.9,14.8,88,71,46,29.99,29.84,8,1,8,0.00
2013-2-25,34.9,30.7,27.6,27.3,25.4,23.9,92,81,67,30.02,29.85,14,4,14,0.00
2013-2-26,32.5,29.5,26.7,29.2,26.2,23.9,96,87,81,29.84,29.70,17,6,17,0.01
2013-2-27,37.8,30.3,24.5,25.8,22.3,18.3,86,73,52,30.02,29.82,22,5,22,0.00
2013-2-28,32.5,28.2,25.7,23.4,21.5,19.2,80,76,66,30.17,30.02,20,4,20,0.00
2013-3-1,29.0,26.2,23.8,20.1,17.2,13.9,81,69,55,30.31,30.15,19,4,19,0.00
2013-3-2,35.2,27.8,21.3,22.6,17.1,13.6,79,64,44,30.31,30.04,10,1,10,0.00
2013-3-3,39.2,32.1,25.1,27.8,24.0,20.7,84,72,60,30.04,29.64,15,3,15,0.00
2013-3-4,43.8,35.7,30.1,29.5,26.5,22.6,86,69,54,29.94,29.58,15,3,15,0.00
2013-3-5,33.2,28.0,24.1,29.5,16.9,12.8,86,63,52,30.33,29.92,27,5,27,0.00
2013-3-6,40.1,29.0,21.6,22.3,17.9,14.6,76,64,41,30.38,30.19,16,2,16,0.00
2013-3-7,49.4,34.2,23.0,27.6,23.2,17.7,81,65,40,30.22,30.02,17,3,17,0.00
2013-3-8,54.5,41.1,30.7,38.7,30.7,24.4,91,68,46,30.10,29.79,17,3,17,0.11
2013-3-9,53.3,45.7,36.5,50.2,43.3,34.4,95,91,85,29.80,29.44,23,3,23,0.10
2013-3-10,36.5,28.9,22.9,34.4,27.0,21.2,96,93,87,29.88,29.56,29,8,29,0.28
2013-3-11,32.5,24.9,21.3,22.3,19.1,16.0,93,79,58,29.95,29.82,20,2,20,0.01
2013-3-12,34.3,28.3,20.3,24.0,19.7,14.8,86,71,57,30.26,29.95,23,2,23,0.00
2013-3-13,38.5,28.4,18.3,22.8,17.1,13.4,82,64,41,30.40,30.18,11,1,11,0.00
2013-3-14,59.5,42.8,29.8,38.5,30.1,21.9,86,62,42,30.18,29.96,14,1,14,0.00
2013-3-15,62.6,45.8,33.5,41.4,36.6,31.4,94,73,42,29.97,29.60,16,2,16,0.00
2013-3-16,40.3,33.1,29.5,37.3,26.4,21.4,92,76,64,30.12,29.73,24,6,24,0.00
2013-3-17,44.9,33.6,23.8,33.2,24.0,18.3,92,69,47,30.10,29.67,16,4,16,0.00
2013-3-18,37.8,34.0,28.5,33.8,19.8,9.0,97,60,31,29.98,29.64,25,3,25,0.07
2013-3-19,51.3,33.8,21.6,20.8,14.4,8.1,65,47,22,30.26,29.97,22,3,22,0.00
2013-3-20,35.6,25.4,15.9,12.5,5.1,-2.8,67,43,25,30.35,30.05,19,4,19,0.00
2013-3-21,32.5,26.7,20.6,16.1,10.8,6.2,68,51,34,30.05,29.86,11,2,11,0.00
2013-3-22,34.9,30.8,25.8,19.1,16.2,14.0,69,55,43,29.97,29.90,8,1,8,0.00
2013-3-23,37.0,31.8,28.2,29.6,24.0,17.0,93,74,51,30.04,29.95,16,4,16,0.04
2013-3-24,29.1,26.9,24.8,25.8,20.9,16.7,91,78,63,30.02,29.95,22,5,22,0.01
2013-3-25,30.7,27.1,24.4,24.3,20.9,17.0,91,78,58,30.29,30.01,19,4,20,0.00
2013-3-26,41.5,29.4,18.0,21.6,17.1,12.9,80,61,40,30.32,30.18,11,1,11,0.00
2013-3-27,52.5,37.7,25.6,29.5,23.7,19.7,80,59,33,30.21,30.09,13,1,13,0.00
2013-3-28,60.9,44.4,29.5,30.5,27.5,23.8,88,57,27,30.17,30.05,9,0,9,0.00
2013-3-29,70.1,51.8,33.8,38.3,30.4,23.0,87,51,18,30.13,29.91,19,1,19,0.00
2013-3-30,67.6,56.3,47.7,52.2,41.0,24.8,97,62,21,29.95,29.76,21,3,21,0.31
2013-3-31,57.5,48.0,33.5,41.3,30.3,15.0,92,57,20,30.04,29.82,21,4,21,0.03
2013-4-1,41.2,31.9,23.5,31.1,16.4,7.3,92,56,25,30.27,30.05,21,4,21,0.01
2013-4-2,53.3,38.4,23.6,24.6,18.8,15.9,77,48,26,30.26,30.16,10,1,10,0.00
2013-4-3,57.3,42.2,29.5,24.2,22.0,19.8,71,47,25,30.27,30.12,17,2,17,0.00
2013-4-4,64.0,48.8,32.4,35.2,28.8,22.4,75,48,31,30.13,29.93,17,2,17,0.00
2013-4-5,68.3,52.6,34.6,36.5,31.7,26.5,78,48,27,30.08,29.59,25,4,25,0.00
2013-4-6,70.9,59.8,51.9,45.1,38.2,30.7,66,47,26,29.66,29.46,21,4,21,0.00
2013-4-7,76.7,57.8,43.9,52.5,40.3,35.5,90,55,23,29.74,29.50,23,2,23,0.05
2013-4-8,67.9,58.3,47.0,59.7,54.0,45.6,96,86,69,29.59,29.47,24,2,24,0.03
2013-4-9,63.7,48.1,35.3,59.5,46.1,33.7,95,93,86,29.85,29.45,22,6,22,0.51
2013-4-10,38.5,36.3,32.9,37.2,35.0,31.9,96,95,91,29.88,29.70,19,3,19,0.45
2013-4-11,36.5,33.1,30.6,32.4,29.4,26.2,96,86,76,29.71,29.57,15,2,15,0.02
2013-4-12,42.6,36.0,32.1,29.5,27.4,25.3,85,71,53,29.93,29.65,15,2,15,0.00
2013-4-13,53.8,41.7,27.9,36.8,30.5,23.4,85,66,48,29.95,29.55,15,2,15,0.00
2013-4-14,69.1,54.3,44.1,50.8,40.9,29.0,84,63,35,29.56,29.20,29,4,29,0.06
2013-4-15,46.4,40.8,35.5,30.9,26.5,20.4,74,57,47,30.00,29.55,15,2,15,0.00
2013-4-16,51.9,43.2,36.2,32.1,27.3,21.8,70,55,32,30.15,29.98,17,4,17,0.00
2013-4-17,46.4,42.1,37.3,42.8,37.9,30.9,97,86,57,30.06,29.52,24,5,24,0.80
2013-4-18,37.3,34.3,32.1,35.5,30.9,25.9,95,87,73,29.83,29.60,24,6,24,0.46
2013-4-19,46.7,37.5,29.1,26.4,19.8,14.7,76,51,29,30.02,29.78,20,4,20,0.00
2013-4-20,47.0,37.8,27.5,28.7,20.1,13.9,75,51,28,30.19,30.02,12,2,12,0.00
2013-4-21,69.3,54.8,43.9,51.1,36.2,28.3,96,53,27,30.04,29.87,28,4,28,0.47
2013-4-22,52.9,45.0,32.9,52.3,44.0,28.6,99,96,84,30.10,29.82,24,3,24,1.05
2013-4-23,39.9,33.7,29.4,28.6,22.8,19.1,84,65,46,30.17,30.06,24,7,24,0.00
2013-4-24,61.0,41.5,25.6,38.1,24.8,16.6,81,57,20,30.14,29.93,22,2,22,0.01
2013-4-25,70.1,52.0,32.9,35.4,30.3,25.0,84,49,21,30.17,29.91,23,4,23,0.00
2013-4-26,72.0,58.5,48.9,48.9,42.5,34.8,86,56,40,30.07,29.90,24,5,24,0.00
2013-4-27,69.1,55.2,44.1,50.0,46.7,42.8,97,76,46,30.08,29.83,11,1,11,0.00
2013-4-28,81.6,63.8,45.1,53.4,47.1,41.5,96,61,25,29.83,29.54,23,3,23,0.00
2013-4-29,86.3,69.7,56.3,56.2,51.4,40.0,90,57,21,29.62,29.35,16,1,16,0.00
2013-4-30,76.0,70.0,59.8,55.4,48.1,40.6,59,46,35,29.75,29.33,21,5,21,0.03
2013-5-1,59.8,43.4,33.5,45.6,37.1,31.9,95,80,53,30.32,29.75,29,9,29,0.67
2013-5-2,48.2,40.0,32.7,33.0,28.7,22.6,97,67,41,30.45,30.30,29,7,29,0.29
2013-5-3,45.2,39.9,31.9,32.9,27.3,24.6,83,61,49,30.30,29.95,21,6,21,0.00
2013-5-4,43.6,39.7,35.5,40.9,36.5,30.4,94,88,72,30.04,29.87,23,7,24,0.04
2013-5-5,53.9,47.0,41.6,47.6,43.8,40.3,96,89,78,30.07,29.99,12,2,12,0.03
2013-5-6,67.8,55.1,47.7,51.8,48.5,46.3,95,80,54,30.04,29.90,11,1,11,0.00
2013-5-7,76.3,61.8,45.7,54.8,49.6,44.4,98,68,36,29.96,29.81,14,0,14,0.00
2013-5-8,70.8,63.2,56.3,57.4,55.1,51.5,92,76,55,29.83,29.75,15,1,15,0.01
2013-5-9,69.6,60.5,56.2,58.0,55.9,52.7,97,86,57,29.86,29.72,18,2,18,0.36
2013-5-10,70.1,58.5,50.4,53.6,46.2,40.1,89,67,37,29.97,29.85,15,2,16,0.00
2013-5-11,60.4,54.8,43.2,46.5,26.8,12.3,80,37,16,30.14,29.89,25,4,25,0.00
2013-5-12,66.6,51.7,35.2,32.2,24.7,16.6,72,39,16,30.19,30.00,8,0,8,0.00
2013-5-13,83.4,65.4,45.4,50.2,40.0,30.8,74,43,20,30.00,29.69,22,3,22,0.00
2013-5-14,100.4,78.9,55.9,59.2,49.0,30.9,90,45,11,29.70,29.46,31,3,31,0.00
2013-5-15,84.7,75.0,64.8,54.2,37.6,29.7,47,27,16,29.76,29.58,18,3,18,0.00
2013-5-16,86.5,73.5,60.4,62.7,54.0,40.6,71,52,32,29.72,29.59,15,1,15,0.00
2013-5-17,87.0,74.6,63.2,62.0,58.3,53.2,88,60,33,29.74,29.64,14,1,16,0.00
2013-5-18,85.9,74.7,60.2,65.8,61.2,57.5,93,65,40,29.73,29.53,18,1,18,0.00
2013-5-19,79.8,65.6,60.2,67.0,61.6,54.8,98,88,56,29.63,29.34,21,1,21,0.75
2013-5-20,78.5,66.7,56.5,57.5,53.7,47.1,96,66,40,29.51,29.35,24,3,24,0.01
2013-5-21,62.9,59.8,54.8,56.6,49.2,43.7,85,69,52,29.59,29.46,16,1,19,0.00
2013-5-22,60.1,55.7,52.2,53.4,48.9,46.5,90,78,65,29.84,29.59,14,0,14,0.00
2013-5-23,72.8,60.6,51.9,50.5,45.4,35.6,89,62,27,30.11,29.85,19,2,19,0.00
2013-5-24,75.1,63.0,49.1,50.4,45.8,42.8,81,55,36,30.16,29.89,20,1,20,0.00
2013-5-25,82.2,67.8,57.8,67.5,58.5,43.9,98,74,48,29.99,29.80,21,1,21,0.27
2013-5-26,86.3,71.1,62.4,70.4,64.5,60.2,95,81,54,29.86,29.66,13,1,13,0.00
2013-5-27,77.6,67.4,59.6,64.6,61.8,58.4,98,83,59,29.75,29.44,26,2,26,1.09
2013-5-28,80.1,70.2,62.4,65.3,62.6,56.4,98,79,45,29.57,29.45,14,1,14,0.01
2013-5-29,73.7,68.0,62.6,71.1,64.4,60.2,97,89,79,29.57,29.38,28,2,28,0.86
2013-5-30,74.4,65.3,58.9,63.7,60.5,53.6,99,85,62,29.50,29.36,23,4,23,0.39
2013-5-31,79.0,68.3,55.3,55.7,49.4,40.4,92,55,27,29.56,29.46,18,3,18,0.00
2013-6-1,64.0,58.6,54.8,54.9,49.9,44.7,89,73,52,29.89,29.51,18,1,18,0.01
2013-6-2,68.6,58.1,51.9,49.2,45.3,41.0,85,64,40,30.00,29.88,12,1,12,0.00
2013-6-3,76.3,62.4,47.0,53.5,48.6,44.3,96,65,33,29.93,29.68,21,1,21,0.00
2013-6-4,71.5,64.9,58.3,65.1,59.8,53.5,95,84,70,29.84,29.72,9,0,9,0.35
2013-6-5,74.2,64.9,58.0,63.8,52.2,44.7,96,66,37,29.91,29.81,16,1,16,0.03
2013-6-6,72.8,64.4,55.4,56.6,49.8,44.7,82,61,40,29.87,29.81,11,1,11,0.00
2013-6-7,72.8,62.8,52.9,52.9,49.6,45.5,90,64,40,29.91,29.76,11,0,11,0.00
2013-6-8,69.4,61.5,54.7,64.4,57.1,50.3,98,86,69,29.77,29.54,14,0,14,0.72
2013-6-9,69.4,62.9,59.5,62.1,59.1,56.4,98,88,67,29.69,29.56,14,1,14,0.15
2013-6-10,79.0,66.7,58.0,65.5,60.6,55.8,97,82,58,29.76,29.62,11,0,11,0.00
2013-6-11,87.0,75.3,66.9,72.7,65.7,60.4,89,74,42,29.68,29.53,10,0,11,0.00
2013-6-12,89.0,77.6,64.2,71.5,63.4,51.4,84,63,42,29.86,29.49,22,1,22,0.00
2013-6-13,78.3,67.8,58.3,62.4,55.6,47.4,86,67,36,29.97,29.82,11,1,11,0.01
2013-6-14,88.2,72.5,62.4,69.7,64.2,58.8,90,76,52,29.88,29.61,13,1,19,0.15
2013-6-15,82.2,73.4,65.8,70.4,65.3,56.8,96,77,47,29.80,29.66,18,1,18,0.01
2013-6-16,85.5,75.7,66.3,69.1,62.9,51.9,98,69,33,29.83,29.77,11,1,11,0.01
2013-6-17,88.0,77.4,65.5,64.0,56.6,48.5,89,53,26,29.85,29.77,9,0,9,0.00
2013-6-18,82.2,71.4,63.9,66.9,57.0,44.0,95,64,28,29.93,29.81,5,0,5,0.24
2013-6-19,87.4,74.8,62.9,67.2,61.8,57.1,94,67,40,29.86,29.73,12,1,15,0.00
2013-6-20,90.5,79.5,67.1,72.5,68.4,63.7,94,71,48,29.79,29.63,24,2,24,0.00
2013-6-21,94.0,84.4,77.2,73.6,70.6,67.3,80,65,45,29.69,29.59,25,4,25,0.00
2013-6-22,91.0,82.0,72.5,70.8,64.7,55.8,73,56,41,29.84,29.60,22,3,22,0.00
2013-6-23,80.5,74.0,64.8,71.2,67.3,63.3,95,80,62,29.76,29.58,27,1,27,0.34
2013-6-24,82.6,74.9,65.3,73.1,70.1,63.4,96,86,68,29.84,29.55,6,0,17,0.31
2013-6-25,87.2,78.9,69.9,74.6,69.7,61.5,94,74,58,29.65,29.49,19,1,19,0.01
2013-6-26,92.1,81.9,73.3,73.4,65.3,52.8,95,62,27,29.71,29.48,10,0,10,0.00
2013-6-27,82.4,73.7,67.9,71.2,67.3,61.9,95,81,52,29.84,29.70,8,0,9,0.23
2013-6-28,85.5,77.3,69.1,66.5,57.7,48.5,88,55,28,29.82,29.72,15,1,16,0.00
2013-6-29,79.9,72.7,65.5,59.2,54.6,50.7,68,54,40,29.79,29.72,21,2,21,0.00
2013-6-30,78.1,69.1,59.8,59.7,52.8,44.4,90,60,33,29.96,29.80,14,2,14,0.00
2013-7-1,82.6,71.2,57.0,55.9,50.4,43.8,86,52,27,30.04,29.95,13,1,13,0.00
2013-7-2,83.6,71.4,60.2,59.3,54.2,47.8,84,57,31,30.01,29.89,5,0,5,0.00
2013-7-3,82.6,70.1,58.4,68.4,57.9,49.3,93,68,35,29.91,29.80,16,0,16,0.06
2013-7-4,87.0,73.7,59.2,60.4,56.1,49.3,88,57,28,29.85,29.73,19,2,19,0.00
2013-7-5,85.9,76.5,66.6,65.1,60.9,55.6,73,59,45,29.76,29.67,24,2,24,0.00
2013-7-6,87.8,77.9,68.8,66.8,63.6,60.5,78,62,44,29.71,29.64,20,2,20,0.00
2013-7-7,94.0,82.8,73.7,70.0,64.5,60.2,74,55,35,29.72,29.63,18,2,18,0.00
2013-7-8,91.2,81.6,77.2,74.8,69.4,64.3,83,67,49,29.80,29.71,14,0,14,0.00
2013-7-9,96.1,84.5,76.3,75.5,71.3,67.6,83,66,44,29.78,29.69,13,1,13,0.00
2013-7-10,83.4,77.5,70.3,69.0,63.7,56.8,81,64,42,29.92,29.77,15,1,15,0.00
2013-7-11,86.7,75.3,62.7,63.9,60.6,56.1,93,63,38,29.94,29.80,15,1,15,0.00
2013-7-12,90.3,77.9,66.1,68.9,63.6,59.0,80,63,48,29.85,29.74,16,1,16,0.00
2013-7-13,87.2,78.4,72.5,72.9,65.4,59.8,74,65,56,29.82,29.75,14,0,14,0.00
2013-7-14,87.8,77.4,67.8,65.9,60.8,54.9,81,58,36,29.99,29.82,15,1,15,0.00
2013-7-15,89.3,77.4,65.0,69.9,65.4,60.6,89,68,42,30.04,29.94,10,0,10,0.00
2013-7-16,91.6,80.3,69.1,70.9,66.7,62.1,95,66,39,30.09,30.00,11,0,11,0.00
2013-7-17,92.7,82.0,72.1,72.2,69.2,65.1,93,68,41,30.13,29.99,12,1,12,0.00
2013-7-18,94.5,83.9,74.2,70.9,67.0,60.7,82,59,33,29.99,29.75,19,3,19,0.00
2013-7-19,93.6,84.0,76.3,69.5,62.7,50.0,72,51,23,29.76,29.69,14,1,14,0.00
2013-7-20,77.0,76.9,76.8,61.4,61.3,60.9,59,59,58,29.76,29.76,0,0,0,0.00
2013-7-21,91.0,77.6,70.6,75.6,69.2,62.2,98,77,50,29.75,29.59,5,0,12,0.41
2013-7-22,94.0,80.6,68.9,76.0,71.2,61.2,99,76,46,29.68,29.56,12,1,12,0.00
2013-7-23,80.9,73.9,66.4,66.1,62.0,59.0,91,67,51,29.86,29.65,14,2,16,0.03
2013-7-24,82.8,72.4,61.3,64.2,59.5,54.5,91,66,41,29.93,29.83,10,0,10,0.00
2013-7-25,81.2,73.1,67.9,68.3,63.9,58.8,91,74,53,29.89,29.83,15,2,15,0.01
2013-7-26,77.7,70.7,62.3,67.6,57.5,46.8,96,66,35,29.96,29.81,15,1,15,0.00
2013-7-27,73.5,65.0,55.6,53.9,47.7,39.7,89,57,33,29.99,29.86,12,0,12,0.00
2013-7-28,78.5,65.1,49.9,52.2,46.5,37.9,93,55,25,29.94,29.87,9,0,9,0.00
2013-7-29,66.4,62.6,58.7,63.7,57.6,47.4,97,84,58,29.93,29.86,6,0,6,0.08
2013-7-30,74.6,69.3,64.5,66.9,64.8,63.6,99,86,73,29.96,29.88,10,1,10,0.00
2013-7-31,85.9,73.5,62.3,67.4,63.8,59.3,98,74,44,29.99,29.88,7,0,9,0.00
2013-8-1,87.2,74.0,64.0,67.7,64.4,56.5,97,74,37,29.94,29.69,26,2,26,0.18
2013-8-2,84.1,74.6,66.9,68.4,65.1,59.8,94,73,54,29.86,29.66,20,2,20,0.00
2013-8-3,77.4,71.0,64.5,60.3,57.1,54.0,80,63,46,30.02,29.86,12,2,12,0.00
2013-8-4,79.2,70.9,60.5,66.4,59.7,55.3,85,69,52,30.03,29.87,14,1,14,0.00
2013-8-5,87.0,75.9,68.3,73.6,70.2,65.2,95,83,58,29.87,29.67,19,1,19,0.00
2013-8-6,90.1,78.6,68.8,73.4,70.0,64.2,97,77,50,29.78,29.62,18,1,18,0.00
2013-8-7,83.8,77.0,69.8,73.4,63.1,54.9,93,65,39,29.84,29.64,11,1,11,0.00
2013-8-8,77.0,71.0,64.3,65.7,62.2,59.0,89,75,56,29.88,29.79,6,0,6,0.00
2013-8-9,79.8,71.7,62.7,69.2,62.0,55.0,97,74,46,29.99,29.86,11,1,11,0.00
2013-8-10,84.7,71.2,58.3,61.7,59.1,56.2,97,69,41,30.06,29.92,14,1,14,0.00
2013-8-11,88.0,76.7,66.9,69.4,63.6,59.2,83,65,44,29.96,29.82,15,2,15,0.00
2013-8-12,84.0,76.4,69.9,69.9,63.4,51.8,88,67,35,29.91,29.82,13,2,13,0.00
2013-8-13,78.6,71.2,63.4,59.1,55.8,49.0,83,60,37,30.02,29.91,13,1,13,0.00
2013-8-14,76.7,67.6,57.6,61.4,56.8,53.2,91,70,48,30.06,29.93,12,0,13,0.04
2013-8-15,65.6,62.1,59.3,62.1,59.6,58.0,98,92,81,29.98,29.91,18,0,18,1.16
2013-8-16,75.1,66.5,61.2,59.7,57.9,54.7,93,76,52,30.04,29.96,4,0,10,0.01
2013-8-17,79.8,69.0,60.5,62.6,57.3,53.1,95,69,42,30.06,29.96,15,1,15,0.00
2013-8-18,82.0,68.6,56.6,62.6,58.4,54.4,98,73,42,30.02,29.90,15,1,15,0.00
2013-8-19,86.3,73.9,63.1,68.4,64.9,60.9,95,75,53,29.93,29.77,22,2,22,0.01
2013-8-20,90.3,78.8,68.9,70.1,67.5,65.8,91,70,46,29.81,29.73,18,3,18,0.00
2013-8-21,93.2,80.2,69.1,72.2,68.2,65.1,91,69,42,29.83,29.76,18,2,18,0.00
2013-8-22,83.4,76.4,70.9,71.4,67.3,64.2,85,74,55,29.95,29.79,12,1,12,0.00
2013-8-23,90.5,78.2,68.9,73.6,68.4,62.8,95,75,41,29.92,29.80,16,1,16,0.00
2013-8-24,92.7,81.5,73.7,72.0,69.8,67.6,86,69,48,29.90,29.82,19,2,19,0.00
2013-8-25,95.9,83.2,72.0,73.8,70.5,66.5,92,68,41,29.95,29.85,20,3,20,0.00
2013-8-26,96.6,83.7,72.1,71.4,69.1,64.7,91,64,38,29.91,29.77,18,3,18,0.00
2013-8-27,97.1,84.6,75.4,68.4,66.7,62.7,74,57,34,29.78,29.71,18,3,18,0.00
2013-8-28,96.8,80.5,67.6,70.8,64.7,54.4,91,63,26,29.82,29.75,12,1,12,0.00
2013-8-29,97.1,82.2,71.5,74.2,70.4,65.6,94,71,37,29.83,29.72,14,0,14,0.00
2013-8-30,98.5,82.9,71.1,75.8,70.5,62.9,94,70,33,29.73,29.64,11,0,11,0.00
2013-8-31,94.5,80.7,72.7,74.7,70.5,62.7,92,74,37,29.72,29.60,7,0,8,0.00
2013-9-1,82.2,74.3,67.1,70.9,62.6,52.9,98,71,39,29.84,29.57,21,1,35,0.51
2013-9-2,81.1,68.7,59.3,61.5,55.1,39.8,96,67,27,29.96,29.84,10,1,10,0.00
2013-9-3,86.5,69.8,55.9,61.5,58.4,55.1,98,71,37,29.97,29.86,13,0,13,0.00
2013-9-4,86.1,74.3,66.8,64.6,61.6,55.5,84,66,39,30.01,29.87,10,0,10,0.00
2013-9-5,82.6,73.3,66.8,68.7,65.5,61.9,97,78,55,30.05,29.93,12,0,12,0.18
2013-9-6,91.4,77.7,66.1,70.5,66.0,61.2,87,69,47,29.94,29.73,19,1,19,0.01
2013-9-7,90.1,79.1,70.6,72.6,68.0,63.7,86,70,43,29.75,29.67,11,1,11,0.00
2013-9-8,93.6,80.2,70.6,73.8,71.4,67.5,96,77,43,29.75,29.61,11,0,11,0.00
2013-9-9,98.5,84.7,75.1,72.1,60.0,49.3,89,47,20,29.66,29.59,22,4,22,0.00
2013-9-10,96.8,79.2,66.8,69.4,62.4,56.1,93,60,27,29.89,29.67,17,2,17,0.09
2013-9-11,82.4,73.8,68.8,72.0,68.5,63.2,98,85,58,29.95,29.87,14,0,14,0.56
2013-9-12,79.0,71.7,63.7,69.5,54.8,40.8,94,59,28,30.07,29.94,14,2,14,0.00
2013-9-13,75.1,64.3,55.7,52.7,49.8,44.7,84,61,37,30.09,29.94,10,0,10,0.00
2013-9-14,77.2,64.5,51.6,54.2,51.2,47.5,90,65,39,29.94,29.72,19,1,19,0.00
2013-9-15,69.1,64.9,61.8,65.2,57.5,51.1,98,78,55,30.10,29.70,16,3,16,0.47
2013-9-16,67.9,61.3,55.6,55.5,53.3,50.4,92,75,59,30.19,30.07,14,2,14,0.00
2013-9-17,73.2,63.7,57.2,68.2,61.8,55.1,99,94,84,30.07,29.74,16,0,16,0.16
2013-9-18,91.4,77.7,66.4,69.7,66.1,61.1,95,71,39,29.75,29.52,23,4,23,0.00
2013-9-19,82.0,72.1,60.4,67.6,61.9,48.0,95,71,52,29.85,29.54,20,2,20,0.17
2013-9-20,71.1,60.1,52.0,52.3,46.2,38.8,83,62,32,29.95,29.83,11,0,11,0.00
2013-9-21,77.0,59.5,44.9,52.5,47.6,43.2,97,70,33,29.92,29.73,10,0,10,0.00
2013-9-22,81.8,65.7,52.3,56.4,51.1,45.8,95,64,29,29.77,29.66,23,2,23,0.00
2013-9-23,78.3,64.8,52.3,54.1,50.3,45.6,92,63,33,29.71,29.57,22,2,22,0.00
2013-9-24,70.8,65.0,59.6,57.6,55.6,51.0,91,72,59,29.76,29.55,14,1,14,0.00
2013-9-25,81.2,65.9,54.1,60.0,56.6,53.3,98,76,40,29.78,29.60,15,0,15,0.00
2013-9-26,86.7,72.1,59.9,61.6,58.0,54.4,95,65,34,29.67,29.57,30,1,30,0.00
2013-9-27,88.8,76.3,69.1,61.3,58.5,51.3,74,56,28,29.68,29.59,27,3,27,0.00
2013-9-28,73.3,62.9,50.5,65.1,51.1,38.9,97,68,35,29.94,29.49,22,1,22,0.28
2013-9-29,79.0,60.3,44.5,48.4,43.1,37.0,97,61,24,29.95,29.75,20,2,20,0.00
2013-9-30,82.2,65.4,51.7,52.3,48.3,43.6,88,58,27,29.75,29.56,20,2,20,0.00
2013-10-1,79.8,66.2,53.5,55.4,49.9,44.2,94,60,29,29.81,29.62,12,1,12,0.00
2013-10-2,85.7,70.1,56.6,66.2,58.2,47.7,95,69,38,29.81,29.66,18,1,18,0.00
2013-10-3,81.1,69.3,60.9,66.9,62.0,58.6,98,79,54,29.71,29.54,19,1,20,2.15
2013-10-4,81.2,67.2,53.2,71.8,60.7,36.4,97,82,50,29.77,29.46,20,2,20,0.52
2013-10-5,53.2,47.3,42.2,39.3,33.4,30.4,82,59,44,29.82,29.70,23,3,23,0.00
2013-10-6,49.1,45.9,41.3,46.5,42.9,37.2,94,89,71,29.89,29.65,15,0,15,0.08
2013-10-7,75.8,56.8,41.2,43.4,38.5,31.5,90,57,21,29.97,29.86,15,1,15,0.00
2013-10-8,78.1,61.6,45.2,45.9,42.4,38.3,90,54,25,29.88,29.75,25,3,25,0.00
2013-10-9,78.3,62.9,52.2,52.4,48.8,45.6,86,63,34,29.87,29.79,20,1,20,0.00
2013-10-10,79.9,64.9,52.6,55.9,51.1,48.1,85,64,35,29.86,29.65,13,1,17,0.00
2013-10-11,80.1,66.3,55.0,59.5,49.0,34.3,85,59,21,29.75,29.47,20,3,28,0.00
2013-10-12,68.1,54.8,46.1,42.5,35.5,25.1,80,52,21,30.16,29.76,9,0,9,0.00
2013-10-13,69.9,52.4,38.6,41.1,36.1,29.2,94,60,23,30.31,30.17,11,0,11,0.00
2013-10-14,59.3,53.2,47.4,58.3,45.4,32.6,98,76,48,30.17,29.60,17,1,17,0.66
2013-10-15,55.6,48.5,45.7,54.5,40.5,36.2,96,74,63,29.95,29.67,13,1,13,0.00
2013-10-16,57.5,47.5,40.2,40.2,35.9,23.8,85,66,30,29.97,29.85,12,0,12,0.00
2013-10-17,62.1,46.2,34.6,41.4,37.1,33.3,96,73,39,29.94,29.77,15,0,15,0.00
2013-10-18,51.0,42.6,36.8,37.9,31.3,25.6,86,66,38,30.04,29.90,10,0,10,0.00
2013-10-19,63.1,46.1,32.4,38.7,32.3,27.8,91,63,30,29.90,29.70,17,1,17,0.00
2013-10-20,65.2,50.7,41.1,43.4,38.3,33.5,91,66,33,29.90,29.59,12,0,12,0.00
2013-10-21,54.4,42.4,32.5,38.8,33.7,28.9,92,73,45,30.01,29.83,12,0,13,0.00
2013-10-22,48.2,43.1,39.3,42.1,36.4,30.5,89,77,65,30.02,29.74,12,0,12,0.00
2013-10-23,45.7,39.2,31.9,38.7,34.6,29.9,94,84,69,30.10,29.95,8,0,9,0.00
2013-10-24,49.9,39.1,31.0,34.3,27.1,20.9,86,65,32,30.32,30.10,5,0,11,0.00
2013-10-25,60.4,42.5,26.6,31.3,27.7,24.4,92,61,30,30.32,29.95,18,2,18,0.00
2013-10-26,52.0,43.5,32.7,34.8,30.7,25.3,83,62,37,30.11,29.90,13,1,13,0.00
2013-10-27,70.4,45.7,27.3,36.6,30.9,25.5,94,63,24,30.06,29.71,16,1,17,0.00
2013-10-28,54.7,46.6,40.3,38.2,35.0,32.8,77,65,47,30.08,29.82,17,4,17,0.00
2013-10-29,53.9,47.6,42.2,53.6,45.7,37.3,99,93,68,30.08,29.83,13,1,13,0.21
2013-10-30,58.1,50.6,42.6,58.1,50.3,41.5,100,99,96,29.83,29.63,5,0,6,0.29
2013-10-31,57.5,45.4,38.5,45.0,38.9,34.9,97,80,49,29.65,29.39,9,0,9,0.00
2013-11-1,59.6,46.9,38.3,41.5,37.6,30.3,90,72,35,29.87,29.48,13,0,13,0.05
2013-11-2,58.7,45.0,36.2,38.9,34.1,28.7,86,68,33,30.09,29.86,15,0,15,0.00
2013-11-3,56.6,48.3,35.9,36.7,33.2,30.6,87,58,38,29.99,29.63,32,3,32,0.00
2013-11-4,55.7,49.7,39.5,43.6,38.5,34.8,85,66,47,30.03,29.67,15,1,15,0.00
2013-11-5,46.4,42.2,34.9,45.4,38.6,33.3,99,88,71,30.03,29.71,19,2,19,1.00
2013-11-6,43.9,36.7,31.5,33.5,31.7,28.5,94,82,64,30.19,29.93,14,0,16,0.00
2013-11-7,50.1,37.0,29.5,31.0,25.5,15.9,92,67,27,30.31,30.18,13,0,13,0.00
2013-11-8,64.8,47.6,30.6,37.4,30.5,25.2,83,55,26,30.19,29.62,30,2,30,0.00
2013-11-9,61.5,49.4,42.1,36.0,31.8,29.1,70,52,30,30.23,29.79,7,0,10,0.00
2013-11-10,54.8,44.3,32.8,35.8,28.3,23.9,81,55,31,30.33,30.03,13,1,13,0.00
2013-11-11,47.4,33.2,19.2,40.4,23.5,7.8,93,68,47,30.71,29.99,20,5,20,0.00
2013-11-12,34.6,22.0,12.9,9.6,6.8,2.0,75,54,26,30.85,30.50,13,1,13,0.00
2013-11-13,54.5,37.5,22.7,24.8,18.0,8.2,62,46,29,30.51,29.90,20,4,20,0.00
2013-11-14,54.2,40.2,29.8,31.8,26.8,21.9,81,60,37,29.90,29.79,12,0,12,0.00
2013-11-15,56.9,41.9,28.5,42.4,32.5,25.6,89,72,39,29.80,29.49,18,1,18,0.00
2013-11-16,66.9,53.4,43.8,53.5,40.8,29.9,93,66,29,29.49,29.17,28,3,28,0.00
2013-11-17,56.6,47.9,38.5,44.7,36.1,30.2,78,64,49,29.95,29.16,13,1,13,0.27
2013-11-18,58.9,40.8,30.3,32.6,25.9,16.0,88,60,19,30.17,29.95,9,0,9,0.00
2013-11-19,61.8,47.3,32.5,29.9,25.0,18.4,73,46,23,30.09,29.76,29,4,29,0.00
2013-11-20,55.6,47.1,38.6,36.4,31.8,24.0,86,57,36,29.83,29.64,20,3,20,0.00
2013-11-21,38.5,29.3,21.4,34.7,24.3,17.3,90,82,68,30.49,29.83,21,6,21,0.05
2013-11-22,29.4,21.5,14.4,17.7,9.7,5.3,83,61,37,30.66,30.49,19,1,19,0.00
2013-11-23,24.8,17.8,12.9,12.3,4.1,-2.1,72,55,36,30.85,30.58,17,3,17,0.00
2013-11-24,31.5,20.8,11.2,13.6,8.1,3.2,71,58,42,30.73,30.16,23,4,23,0.00
2013-11-25,43.8,33.4,26.0,27.9,20.8,11.5,70,60,47,30.16,30.02,16,2,16,0.00
2013-11-26,32.4,26.9,18.4,23.0,12.8,2.3,77,57,33,30.36,30.11,26,3,26,0.00
2013-11-27,32.9,23.3,12.3,14.9,9.2,5.3,75,56,35,30.37,29.98,22,2,22,0.00
2013-11-28,33.7,28.4,22.2,20.0,15.8,13.4,72,59,45,30.43,29.98,19,2,19,0.00
2013-11-29,45.7,31.2,18.4,26.1,19.9,12.4,79,64,43,30.42,30.05,16,1,16,0.00
2013-11-30,56.6,39.0,26.1,29.7,25.4,20.1,79,60,31,30.06,29.95,9,0,9,0.00
2013-12-1,47.4,36.5,28.1,27.4,25.0,22.2,81,64,41,30.08,29.77,6,0,6,0.00
2013-12-2,64.2,43.9,31.8,34.2,29.5,25.3,85,61,27,29.77,29.40,9,1,9,0.00
2013-12-3,42.3,38.1,35.2,35.6,33.1,29.4,92,82,72,29.58,29.37,13,2,13,0.00
2013-12-4,35.3,23.4,16.5,33.4,17.9,4.7,95,80,60,30.01,29.53,19,3,19,0.00
2013-12-5,16.5,12.0,8.1,6.1,-2.6,-9.9,64,52,41,30.42,30.02,17,2,18,0.00
2013-12-6,12.6,6.0,0.3,-6.6,-8.6,-10.9,63,51,38,30.70,30.41,15,2,15,0.00
2013-12-7,12.8,6.0,-0.8,-1.0,-6.9,-10.0,67,55,41,30.76,30.40,11,1,11,0.00
2013-12-8,18.1,14.5,10.2,12.4,8.0,-2.7,83,75,49,30.39,29.97,11,1,11,0.06
2013-12-9,13.6,6.5,0.1,5.3,-3.9,-9.4,81,62,45,30.32,30.06,16,1,16,0.00
2013-12-10,29.3,22.1,11.9,23.3,10.7,1.1,86,62,45,30.22,30.03,17,1,17,0.00
2013-12-11,28.1,10.8,4.1,25.0,-0.9,-8.6,89,59,41,30.63,30.17,22,2,22,0.00
2013-12-12,33.1,18.4,4.3,19.0,8.8,-4.1,78,66,51,30.46,30.03,9,1,9,0.00
2013-12-13,32.2,23.9,17.2,23.3,18.0,12.7,84,78,67,30.02,29.82,18,2,18,0.00
2013-12-14,22.7,19.1,15.4,17.2,12.2,9.7,80,74,65,30.17,30.01,15,2,15,0.00
2013-12-15,27.8,21.4,16.2,18.8,14.7,10.5,82,75,62,30.12,29.91,8,0,8,0.00
2013-12-16,46.5,28.0,14.0,29.9,19.6,8.7,81,71,51,30.08,29.92,16,1,16,0.00
2013-12-17,41.6,32.9,25.4,25.9,19.3,9.5,83,60,27,30.20,30.04,15,1,15,0.00
2013-12-18,56.7,37.6,24.5,29.1,23.8,15.4,77,59,32,30.03,29.60,13,1,13,0.00
2013-12-19,34.1,30.2,20.8,26.4,23.5,18.1,90,76,66,29.81,29.62,18,4,18,0.00
2013-12-20,20.8,16.7,13.6,17.9,12.0,9.9,89,82,73,29.94,29.81,17,2,18,0.00
2013-12-21,24.5,21.2,18.6,18.6,14.6,11.1,84,75,68,29.85,29.73,16,2,16,0.00
2013-12-22,22.1,16.7,8.4,18.5,9.1,-1.0,90,72,58,30.36,29.80,16,2,16,0.06
2013-12-23,11.6,5.7,-1.0,-1.0,-8.1,-11.9,67,53,33,30.60,30.37,15,2,15,0.00
2013-12-24,25.1,12.1,-2.0,22.3,4.8,-9.7,89,72,61,30.54,30.11,22,2,22,0.00
2013-12-25,41.6,29.6,20.6,27.0,20.8,16.5,87,71,46,30.25,30.13,27,2,27,0.00
2013-12-26,48.3,32.1,19.7,23.1,19.0,15.1,84,61,31,30.17,30.02,9,0,9,0.00
2013-12-27,61.5,37.6,21.8,29.1,22.6,16.3,82,59,22,30.18,29.98,19,1,19,0.00
2013-12-28,58.6,37.6,16.4,30.7,23.2,5.2,86,61,24,30.04,29.64,27,4,30,0.00
2013-12-29,16.2,9.2,4.1,5.5,-12.3,-21.9,65,39,19,30.37,30.04,28,4,28,0.00
2013-12-30,33.4,17.4,5.8,20.6,0.3,-13.8,71,47,32,30.28,30.01,21,2,21,0.00
2013-12-31,34.3,17.3,9.5,17.8,7.8,3.0,77,67,47,30.23,29.96,21,2,21,0.00
2014-1-1,10.9,8.0,3.4,3.7,0.8,-5.0,77,72,65,30.39,30.08,16,4,16,0.04
2014-1-2,10.5,4.4,0.9,-3.1,-5.2,-7.6,74,64,50,30.47,30.36,7,1,9,0.00